sensor_id;sensor_type;location;lat;lon;timestamp;P1;durP1;ratioP1;P2;durP2;ratioP2
65471;SDS011;52068;50.710;14.492;2022-12-17T00:01:52;15.27;;;10.77;;
65471;SDS011;52068;50.710;14.492;2022-12-17T00:04:36;24.40;;;11.23;;
65471;SDS011;52068;50.710;14.492;2022-12-17T00:07:20;14.25;;;10.48;;
65471;SDS011;52068;50.710;14.492;2022-12-17T00:10:05;15.77;;;10.55;;
65471;SDS011;52068;50.710;14.492;2022-12-17T00:12:49;14.52;;;10.73;;
65471;SDS011;52068;50.710;14.492;2022-12-17T00:15:33;18.60;;;10.95;;
65471;SDS011;52068;50.710;14.492;2022-12-17T00:18:17;15.35;;;10.40;;
65471;SDS011;52068;50.710;14.492;2022-12-17T00:21:02;13.70;;;10.10;;
65471;SDS011;52068;50.710;14.492;2022-12-17T00:23:46;15.35;;;10.55;;
65471;SDS011;52068;50.710;14.492;2022-12-17T00:26:30;16.35;;;10.90;;
65471;SDS011;52068;50.710;14.492;2022-12-17T00:29:15;17.00;;;10.65;;
65471;SDS011;52068;50.710;14.492;2022-12-17T00:31:59;13.77;;;9.60;;
65471;SDS011;52068;50.710;14.492;2022-12-17T00:34:43;15.18;;;9.77;;
65471;SDS011;52068;50.710;14.492;2022-12-17T00:37:27;13.70;;;9.13;;
65471;SDS011;52068;50.710;14.492;2022-12-17T00:40:11;13.25;;;9.48;;
65471;SDS011;52068;50.710;14.492;2022-12-17T00:42:58;15.23;;;9.73;;
65471;SDS011;52068;50.710;14.492;2022-12-17T00:45:47;12.85;;;9.70;;
65471;SDS011;52068;50.710;14.492;2022-12-17T00:48:32;13.32;;;9.90;;
65471;SDS011;52068;50.710;14.492;2022-12-17T00:51:15;13.05;;;10.05;;
65471;SDS011;52068;50.710;14.492;2022-12-17T00:53:59;14.68;;;9.77;;
65471;SDS011;52068;50.710;14.492;2022-12-17T00:56:43;11.80;;;9.43;;
65471;SDS011;52068;50.710;14.492;2022-12-17T00:59:27;15.13;;;9.98;;
65471;SDS011;52068;50.710;14.492;2022-12-17T01:02:11;12.98;;;9.50;;
65471;SDS011;52068;50.710;14.492;2022-12-17T01:04:55;15.02;;;10.32;;
65471;SDS011;52068;50.710;14.492;2022-12-17T01:07:39;15.38;;;10.27;;
65471;SDS011;52068;50.710;14.492;2022-12-17T01:10:23;12.95;;;10.07;;
65471;SDS011;52068;50.710;14.492;2022-12-17T01:13:07;17.15;;;10.35;;
65471;SDS011;52068;50.710;14.492;2022-12-17T01:15:51;15.95;;;10.77;;
65471;SDS011;52068;50.710;14.492;2022-12-17T01:18:35;15.48;;;11.48;;
65471;SDS011;52068;50.710;14.492;2022-12-17T01:21:18;15.27;;;11.13;;
65471;SDS011;52068;50.710;14.492;2022-12-17T01:24:02;18.13;;;12.05;;
65471;SDS011;52068;50.710;14.492;2022-12-17T01:26:46;19.42;;;10.70;;
65471;SDS011;52068;50.710;14.492;2022-12-17T01:29:30;15.82;;;10.75;;
65471;SDS011;52068;50.710;14.492;2022-12-17T01:32:14;17.13;;;10.60;;
65471;SDS011;52068;50.710;14.492;2022-12-17T01:34:58;17.70;;;11.32;;
65471;SDS011;52068;50.710;14.492;2022-12-17T01:37:42;16.85;;;11.18;;
65471;SDS011;52068;50.710;14.492;2022-12-17T01:40:39;14.25;;;9.98;;
65471;SDS011;52068;50.710;14.492;2022-12-17T01:43:30;14.80;;;10.75;;
65471;SDS011;52068;50.710;14.492;2022-12-17T01:46:16;15.77;;;10.25;;
65471;SDS011;52068;50.710;14.492;2022-12-17T01:49:00;16.48;;;10.80;;
65471;SDS011;52068;50.710;14.492;2022-12-17T01:51:45;14.30;;;10.38;;
65471;SDS011;52068;50.710;14.492;2022-12-17T01:54:29;19.42;;;10.38;;
65471;SDS011;52068;50.710;14.492;2022-12-17T01:57:13;15.65;;;10.07;;
65471;SDS011;52068;50.710;14.492;2022-12-17T01:59:59;16.15;;;10.07;;
65471;SDS011;52068;50.710;14.492;2022-12-17T02:02:45;13.85;;;10.50;;
65471;SDS011;52068;50.710;14.492;2022-12-17T02:06:03;14.32;;;10.52;;
65471;SDS011;52068;50.710;14.492;2022-12-17T02:17:02;12.93;;;8.98;;
65471;SDS011;52068;50.710;14.492;2022-12-17T02:23:03;11.02;;;8.60;;
65471;SDS011;52068;50.710;14.492;2022-12-17T02:29:15;11.60;;;8.60;;
65471;SDS011;52068;50.710;14.492;2022-12-17T02:32:00;15.43;;;8.93;;
65471;SDS011;52068;50.710;14.492;2022-12-17T02:34:46;12.98;;;9.07;;
65471;SDS011;52068;50.710;14.492;2022-12-17T02:37:31;13.23;;;8.45;;
65471;SDS011;52068;50.710;14.492;2022-12-17T02:40:15;12.90;;;8.75;;
65471;SDS011;52068;50.710;14.492;2022-12-17T02:43:02;11.57;;;9.48;;
65471;SDS011;52068;50.710;14.492;2022-12-17T02:45:46;14.80;;;9.25;;
65471;SDS011;52068;50.710;14.492;2022-12-17T02:48:31;12.25;;;9.10;;
65471;SDS011;52068;50.710;14.492;2022-12-17T02:51:17;13.02;;;9.25;;
65471;SDS011;52068;50.710;14.492;2022-12-17T02:54:01;20.08;;;9.30;;
65471;SDS011;52068;50.710;14.492;2022-12-17T02:56:46;14.00;;;9.15;;
65471;SDS011;52068;50.710;14.492;2022-12-17T02:59:30;12.05;;;8.68;;
65471;SDS011;52068;50.710;14.492;2022-12-17T03:02:14;15.75;;;9.02;;
65471;SDS011;52068;50.710;14.492;2022-12-17T03:04:58;13.60;;;8.70;;
65471;SDS011;52068;50.710;14.492;2022-12-17T03:07:42;13.52;;;9.35;;
65471;SDS011;52068;50.710;14.492;2022-12-17T03:10:26;13.52;;;9.57;;
65471;SDS011;52068;50.710;14.492;2022-12-17T03:13:20;12.57;;;8.57;;
65471;SDS011;52068;50.710;14.492;2022-12-17T03:16:13;11.40;;;8.57;;
65471;SDS011;52068;50.710;14.492;2022-12-17T03:18:58;10.65;;;8.45;;
65471;SDS011;52068;50.710;14.492;2022-12-17T03:21:42;10.30;;;8.00;;
65471;SDS011;52068;50.710;14.492;2022-12-17T03:24:27;12.00;;;8.30;;
65471;SDS011;52068;50.710;14.492;2022-12-17T03:27:11;13.45;;;7.45;;
65471;SDS011;52068;50.710;14.492;2022-12-17T03:29:56;10.95;;;7.85;;
65471;SDS011;52068;50.710;14.492;2022-12-17T03:32:40;10.73;;;8.38;;
65471;SDS011;52068;50.710;14.492;2022-12-17T03:35:24;10.40;;;7.90;;
65471;SDS011;52068;50.710;14.492;2022-12-17T03:38:08;11.02;;;7.63;;
65471;SDS011;52068;50.710;14.492;2022-12-17T03:40:53;10.25;;;8.40;;
65471;SDS011;52068;50.710;14.492;2022-12-17T03:43:37;11.80;;;8.60;;
65471;SDS011;52068;50.710;14.492;2022-12-17T03:46:21;12.82;;;8.05;;
65471;SDS011;52068;50.710;14.492;2022-12-17T03:49:05;15.38;;;8.15;;
65471;SDS011;52068;50.710;14.492;2022-12-17T03:51:49;12.38;;;7.65;;
65471;SDS011;52068;50.710;14.492;2022-12-17T03:54:33;13.20;;;9.30;;
65471;SDS011;52068;50.710;14.492;2022-12-17T03:57:17;11.10;;;8.23;;
65471;SDS011;52068;50.710;14.492;2022-12-17T04:00:01;9.82;;;7.63;;
65471;SDS011;52068;50.710;14.492;2022-12-17T04:02:45;10.60;;;7.85;;
65471;SDS011;52068;50.710;14.492;2022-12-17T04:05:28;11.93;;;8.38;;
65471;SDS011;52068;50.710;14.492;2022-12-17T04:08:12;14.32;;;7.82;;
65471;SDS011;52068;50.710;14.492;2022-12-17T04:10:56;10.82;;;7.95;;
65471;SDS011;52068;50.710;14.492;2022-12-17T04:13:40;10.27;;;7.82;;
65471;SDS011;52068;50.710;14.492;2022-12-17T04:16:24;11.70;;;7.68;;
65471;SDS011;52068;50.710;14.492;2022-12-17T04:19:08;10.23;;;7.47;;
65471;SDS011;52068;50.710;14.492;2022-12-17T04:21:52;10.85;;;7.10;;
65471;SDS011;52068;50.710;14.492;2022-12-17T04:24:36;10.82;;;7.70;;
65471;SDS011;52068;50.710;14.492;2022-12-17T04:27:20;9.60;;;7.57;;
65471;SDS011;52068;50.710;14.492;2022-12-17T04:30:04;12.30;;;7.22;;
65471;SDS011;52068;50.710;14.492;2022-12-17T04:32:48;10.52;;;7.70;;
65471;SDS011;52068;50.710;14.492;2022-12-17T04:35:32;10.80;;;7.47;;
65471;SDS011;52068;50.710;14.492;2022-12-17T04:38:16;11.50;;;7.55;;
65471;SDS011;52068;50.710;14.492;2022-12-17T04:41:00;9.57;;;8.00;;
65471;SDS011;52068;50.710;14.492;2022-12-17T04:43:44;9.85;;;7.30;;
65471;SDS011;52068;50.710;14.492;2022-12-17T04:46:29;11.20;;;7.43;;
65471;SDS011;52068;50.710;14.492;2022-12-17T04:49:13;13.13;;;7.20;;
65471;SDS011;52068;50.710;14.492;2022-12-17T04:51:57;12.07;;;7.80;;
65471;SDS011;52068;50.710;14.492;2022-12-17T04:54:41;10.35;;;7.38;;
65471;SDS011;52068;50.710;14.492;2022-12-17T04:57:25;10.48;;;7.60;;
65471;SDS011;52068;50.710;14.492;2022-12-17T05:00:09;9.43;;;6.90;;
65471;SDS011;52068;50.710;14.492;2022-12-17T05:02:53;9.48;;;7.18;;
65471;SDS011;52068;50.710;14.492;2022-12-17T05:05:37;10.23;;;7.28;;
65471;SDS011;52068;50.710;14.492;2022-12-17T05:08:21;9.85;;;7.70;;
65471;SDS011;52068;50.710;14.492;2022-12-17T05:11:05;9.82;;;7.45;;
65471;SDS011;52068;50.710;14.492;2022-12-17T05:13:50;12.30;;;7.32;;
65471;SDS011;52068;50.710;14.492;2022-12-17T05:16:34;9.90;;;6.53;;
65471;SDS011;52068;50.710;14.492;2022-12-17T05:19:17;9.10;;;6.72;;
65471;SDS011;52068;50.710;14.492;2022-12-17T05:22:01;10.38;;;6.57;;
65471;SDS011;52068;50.710;14.492;2022-12-17T05:24:45;9.80;;;7.45;;
65471;SDS011;52068;50.710;14.492;2022-12-17T05:27:29;9.00;;;7.13;;
65471;SDS011;52068;50.710;14.492;2022-12-17T05:30:13;14.00;;;7.93;;
65471;SDS011;52068;50.710;14.492;2022-12-17T05:33:01;13.48;;;7.47;;
65471;SDS011;52068;50.710;14.492;2022-12-17T05:35:46;12.38;;;6.53;;
65471;SDS011;52068;50.710;14.492;2022-12-17T05:38:30;13.98;;;7.00;;
65471;SDS011;52068;50.710;14.492;2022-12-17T05:41:14;12.82;;;7.20;;
65471;SDS011;52068;50.710;14.492;2022-12-17T05:43:57;9.52;;;7.00;;
65471;SDS011;52068;50.710;14.492;2022-12-17T05:46:41;11.68;;;7.07;;
65471;SDS011;52068;50.710;14.492;2022-12-17T05:49:25;9.77;;;6.30;;
65471;SDS011;52068;50.710;14.492;2022-12-17T05:52:09;11.65;;;7.25;;
65471;SDS011;52068;50.710;14.492;2022-12-17T05:54:53;14.55;;;6.70;;
65471;SDS011;52068;50.710;14.492;2022-12-17T05:57:37;11.07;;;7.30;;
65471;SDS011;52068;50.710;14.492;2022-12-17T06:00:21;9.73;;;6.22;;
65471;SDS011;52068;50.710;14.492;2022-12-17T06:03:05;20.50;;;6.85;;
65471;SDS011;52068;50.710;14.492;2022-12-17T06:05:53;9.90;;;6.30;;
65471;SDS011;52068;50.710;14.492;2022-12-17T06:08:37;8.90;;;6.63;;
65471;SDS011;52068;50.710;14.492;2022-12-17T06:11:21;9.85;;;6.60;;
65471;SDS011;52068;50.710;14.492;2022-12-17T06:14:05;8.27;;;6.15;;
65471;SDS011;52068;50.710;14.492;2022-12-17T06:16:49;7.95;;;6.10;;
65471;SDS011;52068;50.710;14.492;2022-12-17T06:19:33;15.68;;;7.03;;
65471;SDS011;52068;50.710;14.492;2022-12-17T06:22:17;11.73;;;6.28;;
65471;SDS011;52068;50.710;14.492;2022-12-17T06:25:01;9.18;;;6.55;;
65471;SDS011;52068;50.710;14.492;2022-12-17T06:27:45;10.35;;;6.82;;
65471;SDS011;52068;50.710;14.492;2022-12-17T06:30:29;7.72;;;6.30;;
65471;SDS011;52068;50.710;14.492;2022-12-17T06:33:13;14.32;;;6.88;;
65471;SDS011;52068;50.710;14.492;2022-12-17T06:35:57;10.45;;;6.57;;
65471;SDS011;52068;50.710;14.492;2022-12-17T06:38:42;10.75;;;6.72;;
65471;SDS011;52068;50.710;14.492;2022-12-17T06:41:26;10.38;;;6.47;;
65471;SDS011;52068;50.710;14.492;2022-12-17T06:44:11;11.63;;;6.82;;
65471;SDS011;52068;50.710;14.492;2022-12-17T06:46:55;10.25;;;6.85;;
65471;SDS011;52068;50.710;14.492;2022-12-17T06:49:39;11.93;;;6.65;;
65471;SDS011;52068;50.710;14.492;2022-12-17T06:52:22;10.02;;;6.68;;
65471;SDS011;52068;50.710;14.492;2022-12-17T06:55:07;7.53;;;5.95;;
65471;SDS011;52068;50.710;14.492;2022-12-17T06:57:55;8.88;;;5.75;;
65471;SDS011;52068;50.710;14.492;2022-12-17T07:00:40;11.20;;;6.15;;
65471;SDS011;52068;50.710;14.492;2022-12-17T07:03:23;33.40;;;6.75;;
65471;SDS011;52068;50.710;14.492;2022-12-17T07:06:07;10.23;;;6.40;;
65471;SDS011;52068;50.710;14.492;2022-12-17T07:08:51;8.75;;;5.90;;
65471;SDS011;52068;50.710;14.492;2022-12-17T07:11:35;8.05;;;6.18;;
65471;SDS011;52068;50.710;14.492;2022-12-17T07:14:19;9.50;;;5.68;;
65471;SDS011;52068;50.710;14.492;2022-12-17T07:17:03;11.68;;;6.00;;
65471;SDS011;52068;50.710;14.492;2022-12-17T07:19:47;10.25;;;5.95;;
65471;SDS011;52068;50.710;14.492;2022-12-17T07:22:31;11.57;;;5.95;;
65471;SDS011;52068;50.710;14.492;2022-12-17T07:25:15;14.40;;;7.05;;
65471;SDS011;52068;50.710;14.492;2022-12-17T07:27:59;6.80;;;5.70;;
65471;SDS011;52068;50.710;14.492;2022-12-17T07:30:43;7.20;;;6.05;;
65471;SDS011;52068;50.710;14.492;2022-12-17T07:33:27;9.52;;;6.50;;
65471;SDS011;52068;50.710;14.492;2022-12-17T07:36:10;8.15;;;6.20;;
65471;SDS011;52068;50.710;14.492;2022-12-17T07:38:54;10.50;;;6.28;;
65471;SDS011;52068;50.710;14.492;2022-12-17T07:41:38;12.15;;;6.43;;
65471;SDS011;52068;50.710;14.492;2022-12-17T07:44:22;9.15;;;6.70;;
65471;SDS011;52068;50.710;14.492;2022-12-17T07:47:06;11.00;;;6.28;;
65471;SDS011;52068;50.710;14.492;2022-12-17T07:49:50;8.60;;;6.32;;
65471;SDS011;52068;50.710;14.492;2022-12-17T07:52:34;8.73;;;6.22;;
65471;SDS011;52068;50.710;14.492;2022-12-17T07:55:18;10.40;;;5.70;;
65471;SDS011;52068;50.710;14.492;2022-12-17T07:58:03;12.45;;;6.05;;
65471;SDS011;52068;50.710;14.492;2022-12-17T08:00:48;12.93;;;9.50;;
65471;SDS011;52068;50.710;14.492;2022-12-17T08:03:32;11.05;;;8.57;;
65471;SDS011;52068;50.710;14.492;2022-12-17T08:06:16;11.82;;;6.80;;
65471;SDS011;52068;50.710;14.492;2022-12-17T08:09:00;13.30;;;6.65;;
65471;SDS011;52068;50.710;14.492;2022-12-17T08:11:44;10.80;;;7.25;;
65471;SDS011;52068;50.710;14.492;2022-12-17T08:14:28;11.15;;;6.93;;
65471;SDS011;52068;50.710;14.492;2022-12-17T08:17:12;8.77;;;6.50;;
65471;SDS011;52068;50.710;14.492;2022-12-17T08:19:55;9.18;;;6.60;;
65471;SDS011;52068;50.710;14.492;2022-12-17T08:22:39;9.05;;;6.43;;
65471;SDS011;52068;50.710;14.492;2022-12-17T08:25:23;10.65;;;6.82;;
65471;SDS011;52068;50.710;14.492;2022-12-17T08:28:07;21.20;;;6.20;;
65471;SDS011;52068;50.710;14.492;2022-12-17T08:30:51;10.23;;;6.40;;
65471;SDS011;52068;50.710;14.492;2022-12-17T08:33:35;16.98;;;5.90;;
65471;SDS011;52068;50.710;14.492;2022-12-17T08:36:19;15.43;;;6.57;;
65471;SDS011;52068;50.710;14.492;2022-12-17T08:39:03;9.65;;;6.20;;
65471;SDS011;52068;50.710;14.492;2022-12-17T08:41:46;8.38;;;5.68;;
65471;SDS011;52068;50.710;14.492;2022-12-17T08:44:30;9.95;;;6.15;;
65471;SDS011;52068;50.710;14.492;2022-12-17T08:47:14;7.43;;;6.07;;
65471;SDS011;52068;50.710;14.492;2022-12-17T08:49:58;8.95;;;6.75;;
65471;SDS011;52068;50.710;14.492;2022-12-17T08:52:42;8.75;;;6.00;;
65471;SDS011;52068;50.710;14.492;2022-12-17T08:55:26;9.48;;;6.93;;
65471;SDS011;52068;50.710;14.492;2022-12-17T08:58:10;10.10;;;6.43;;
65471;SDS011;52068;50.710;14.492;2022-12-17T09:00:57;7.28;;;5.90;;
65471;SDS011;52068;50.710;14.492;2022-12-17T09:03:41;8.05;;;6.07;;
65471;SDS011;52068;50.710;14.492;2022-12-17T09:06:25;7.50;;;6.07;;
65471;SDS011;52068;50.710;14.492;2022-12-17T09:09:09;7.45;;;5.60;;
65471;SDS011;52068;50.710;14.492;2022-12-17T09:11:53;8.65;;;6.32;;
65471;SDS011;52068;50.710;14.492;2022-12-17T09:14:37;9.27;;;6.45;;
65471;SDS011;52068;50.710;14.492;2022-12-17T09:17:21;16.45;;;5.70;;
65471;SDS011;52068;50.710;14.492;2022-12-17T09:20:05;11.93;;;5.97;;
65471;SDS011;52068;50.710;14.492;2022-12-17T09:22:49;8.45;;;5.80;;
65471;SDS011;52068;50.710;14.492;2022-12-17T09:25:33;20.75;;;6.63;;
65471;SDS011;52068;50.710;14.492;2022-12-17T09:28:17;12.55;;;5.63;;
65471;SDS011;52068;50.710;14.492;2022-12-17T09:31:01;7.88;;;5.85;;
65471;SDS011;52068;50.710;14.492;2022-12-17T09:33:45;10.95;;;5.95;;
65471;SDS011;52068;50.710;14.492;2022-12-17T09:36:29;7.85;;;5.95;;
65471;SDS011;52068;50.710;14.492;2022-12-17T09:39:13;8.85;;;6.57;;
65471;SDS011;52068;50.710;14.492;2022-12-17T09:42:13;6.97;;;5.90;;
65471;SDS011;52068;50.710;14.492;2022-12-17T09:45:13;9.43;;;5.82;;
65471;SDS011;52068;50.710;14.492;2022-12-17T09:48:13;10.32;;;6.50;;
65471;SDS011;52068;50.710;14.492;2022-12-17T09:50:59;10.95;;;6.47;;
65471;SDS011;52068;50.710;14.492;2022-12-17T09:53:43;12.90;;;7.43;;
65471;SDS011;52068;50.710;14.492;2022-12-17T09:56:30;8.15;;;5.90;;
65471;SDS011;52068;50.710;14.492;2022-12-17T09:59:19;9.25;;;6.47;;
65471;SDS011;52068;50.710;14.492;2022-12-17T10:02:12;10.77;;;5.97;;
65471;SDS011;52068;50.710;14.492;2022-12-17T10:05:01;8.85;;;5.85;;
65471;SDS011;52068;50.710;14.492;2022-12-17T10:07:50;8.63;;;6.10;;
65471;SDS011;52068;50.710;14.492;2022-12-17T10:10:35;11.18;;;6.18;;
65471;SDS011;52068;50.710;14.492;2022-12-17T10:13:25;7.38;;;5.57;;
65471;SDS011;52068;50.710;14.492;2022-12-17T10:16:20;10.25;;;6.18;;
65471;SDS011;52068;50.710;14.492;2022-12-17T10:19:16;11.07;;;6.43;;
65471;SDS011;52068;50.710;14.492;2022-12-17T10:22:13;7.85;;;6.10;;
65471;SDS011;52068;50.710;14.492;2022-12-17T10:25:05;12.30;;;6.18;;
65471;SDS011;52068;50.710;14.492;2022-12-17T10:27:50;8.18;;;5.53;;
65471;SDS011;52068;50.710;14.492;2022-12-17T10:30:34;8.73;;;6.05;;
65471;SDS011;52068;50.710;14.492;2022-12-17T10:33:19;9.88;;;6.15;;
65471;SDS011;52068;50.710;14.492;2022-12-17T10:36:04;9.63;;;6.22;;
65471;SDS011;52068;50.710;14.492;2022-12-17T10:39:01;8.85;;;6.43;;
65471;SDS011;52068;50.710;14.492;2022-12-17T10:41:45;7.80;;;6.38;;
65471;SDS011;52068;50.710;14.492;2022-12-17T10:44:30;8.30;;;6.22;;
65471;SDS011;52068;50.710;14.492;2022-12-17T10:47:17;8.93;;;6.72;;
65471;SDS011;52068;50.710;14.492;2022-12-17T10:50:07;10.93;;;7.30;;
65471;SDS011;52068;50.710;14.492;2022-12-17T10:52:52;7.43;;;6.00;;
65471;SDS011;52068;50.710;14.492;2022-12-17T10:55:44;7.38;;;6.03;;
65471;SDS011;52068;50.710;14.492;2022-12-17T10:58:33;10.07;;;6.30;;
65471;SDS011;52068;50.710;14.492;2022-12-17T11:01:24;10.32;;;6.47;;
65471;SDS011;52068;50.710;14.492;2022-12-17T11:07:40;12.43;;;6.35;;
65471;SDS011;52068;50.710;14.492;2022-12-17T11:10:28;8.65;;;6.40;;
65471;SDS011;52068;50.710;14.492;2022-12-17T11:13:16;8.63;;;6.32;;
65471;SDS011;52068;50.710;14.492;2022-12-17T11:16:00;9.13;;;6.38;;
65471;SDS011;52068;50.710;14.492;2022-12-17T11:18:53;10.32;;;7.13;;
65471;SDS011;52068;50.710;14.492;2022-12-17T11:21:50;11.50;;;7.15;;
65471;SDS011;52068;50.710;14.492;2022-12-17T11:24:38;9.18;;;6.43;;
65471;SDS011;52068;50.710;14.492;2022-12-17T11:27:28;8.60;;;6.15;;
65471;SDS011;52068;50.710;14.492;2022-12-17T11:30:25;9.32;;;6.80;;
65471;SDS011;52068;50.710;14.492;2022-12-17T11:33:19;9.18;;;6.30;;
65471;SDS011;52068;50.710;14.492;2022-12-17T11:39:16;8.70;;;6.68;;
65471;SDS011;52068;50.710;14.492;2022-12-17T11:45:12;10.65;;;7.13;;
65471;SDS011;52068;50.710;14.492;2022-12-17T11:48:41;9.32;;;6.60;;
65471;SDS011;52068;50.710;14.492;2022-12-17T11:51:36;10.30;;;6.93;;
65471;SDS011;52068;50.710;14.492;2022-12-17T11:54:38;8.23;;;6.30;;
65471;SDS011;52068;50.710;14.492;2022-12-17T11:57:35;12.48;;;6.20;;
65471;SDS011;52068;50.710;14.492;2022-12-17T12:00:48;8.65;;;6.10;;
65471;SDS011;52068;50.710;14.492;2022-12-17T12:03:51;8.20;;;6.07;;
65471;SDS011;52068;50.710;14.492;2022-12-17T12:10:01;8.25;;;6.28;;
65471;SDS011;52068;50.710;14.492;2022-12-17T12:12:52;8.30;;;6.20;;
65471;SDS011;52068;50.710;14.492;2022-12-17T12:21:39;7.97;;;6.05;;
65471;SDS011;52068;50.710;14.492;2022-12-17T12:30:29;7.55;;;6.45;;
65471;SDS011;52068;50.710;14.492;2022-12-17T12:33:51;8.15;;;6.30;;
65471;SDS011;52068;50.710;14.492;2022-12-17T12:36:38;8.40;;;6.18;;
65471;SDS011;52068;50.710;14.492;2022-12-17T12:39:30;9.30;;;6.45;;
65471;SDS011;52068;50.710;14.492;2022-12-17T12:42:25;10.40;;;5.93;;
65471;SDS011;52068;50.710;14.492;2022-12-17T12:45:28;9.20;;;7.00;;
65471;SDS011;52068;50.710;14.492;2022-12-17T12:51:27;9.23;;;6.13;;
65471;SDS011;52068;50.710;14.492;2022-12-17T12:54:49;9.00;;;6.00;;
65471;SDS011;52068;50.710;14.492;2022-12-17T13:03:33;16.52;;;5.88;;
65471;SDS011;52068;50.710;14.492;2022-12-17T13:11:38;8.70;;;5.95;;
65471;SDS011;52068;50.710;14.492;2022-12-17T13:14:06;10.23;;;6.63;;
65471;SDS011;52068;50.710;14.492;2022-12-17T13:21:55;8.80;;;5.82;;
65471;SDS011;52068;50.710;14.492;2022-12-17T13:24:25;9.80;;;6.20;;
65471;SDS011;52068;50.710;14.492;2022-12-17T13:26:51;16.52;;;6.30;;
65471;SDS011;52068;50.710;14.492;2022-12-17T13:32:46;9.63;;;6.53;;
65471;SDS011;52068;50.710;14.492;2022-12-17T13:37:46;11.07;;;6.65;;
65471;SDS011;52068;50.710;14.492;2022-12-17T13:43:11;10.20;;;6.45;;
65471;SDS011;52068;50.710;14.492;2022-12-17T13:45:45;12.25;;;6.63;;
65471;SDS011;52068;50.710;14.492;2022-12-17T13:48:19;7.55;;;5.80;;
65471;SDS011;52068;50.710;14.492;2022-12-17T13:50:56;9.40;;;6.03;;
65471;SDS011;52068;50.710;14.492;2022-12-17T13:53:23;9.80;;;6.03;;
65471;SDS011;52068;50.710;14.492;2022-12-17T13:55:50;13.30;;;6.15;;
65471;SDS011;52068;50.710;14.492;2022-12-17T13:58:35;9.55;;;5.97;;
65471;SDS011;52068;50.710;14.492;2022-12-17T14:03:29;10.00;;;6.10;;
65471;SDS011;52068;50.710;14.492;2022-12-17T14:05:55;8.30;;;5.85;;
65471;SDS011;52068;50.710;14.492;2022-12-17T14:08:21;8.35;;;6.20;;
65471;SDS011;52068;50.710;14.492;2022-12-17T14:10:51;10.48;;;6.00;;
65471;SDS011;52068;50.710;14.492;2022-12-17T14:13:38;7.32;;;5.15;;
65471;SDS011;52068;50.710;14.492;2022-12-17T14:16:04;8.98;;;5.65;;
65471;SDS011;52068;50.710;14.492;2022-12-17T14:18:30;6.20;;;5.20;;
65471;SDS011;52068;50.710;14.492;2022-12-17T14:20:55;8.93;;;5.68;;
65471;SDS011;52068;50.710;14.492;2022-12-17T14:23:27;7.38;;;5.00;;
65471;SDS011;52068;50.710;14.492;2022-12-17T14:25:55;10.32;;;5.15;;
65471;SDS011;52068;50.710;14.492;2022-12-17T14:28:23;10.07;;;5.65;;
65471;SDS011;52068;50.710;14.492;2022-12-17T14:33:37;7.90;;;5.60;;
65471;SDS011;52068;50.710;14.492;2022-12-17T14:36:04;16.50;;;5.50;;
65471;SDS011;52068;50.710;14.492;2022-12-17T14:38:33;9.55;;;5.57;;
65471;SDS011;52068;50.710;14.492;2022-12-17T14:41:00;9.75;;;5.63;;
65471;SDS011;52068;50.710;14.492;2022-12-17T14:43:53;7.82;;;5.18;;
65471;SDS011;52068;50.710;14.492;2022-12-17T14:46:20;12.85;;;5.57;;
65471;SDS011;52068;50.710;14.492;2022-12-17T14:48:52;8.15;;;5.97;;
65471;SDS011;52068;50.710;14.492;2022-12-17T14:51:35;15.05;;;7.07;;
65471;SDS011;52068;50.710;14.492;2022-12-17T14:56:49;14.75;;;9.75;;
65471;SDS011;52068;50.710;14.492;2022-12-17T15:01:56;15.27;;;11.23;;
65471;SDS011;52068;50.710;14.492;2022-12-17T15:04:22;20.67;;;11.23;;
65471;SDS011;52068;50.710;14.492;2022-12-17T15:06:48;15.00;;;10.27;;
65471;SDS011;52068;50.710;14.492;2022-12-17T15:09:17;15.35;;;10.43;;
65471;SDS011;52068;50.710;14.492;2022-12-17T15:11:42;13.85;;;9.85;;
65471;SDS011;52068;50.710;14.492;2022-12-17T15:14:08;16.23;;;9.55;;
65471;SDS011;52068;50.710;14.492;2022-12-17T15:16:33;12.60;;;8.75;;
65471;SDS011;52068;50.710;14.492;2022-12-17T15:18:58;12.40;;;8.38;;
65471;SDS011;52068;50.710;14.492;2022-12-17T15:21:25;16.20;;;8.18;;
65471;SDS011;52068;50.710;14.492;2022-12-17T15:23:50;14.02;;;8.25;;
65471;SDS011;52068;50.710;14.492;2022-12-17T15:26:16;12.02;;;8.20;;
65471;SDS011;52068;50.710;14.492;2022-12-17T15:28:43;11.82;;;7.88;;
65471;SDS011;52068;50.710;14.492;2022-12-17T15:31:09;13.55;;;8.88;;
65471;SDS011;52068;50.710;14.492;2022-12-17T15:33:36;14.52;;;7.93;;
65471;SDS011;52068;50.710;14.492;2022-12-17T15:36:01;12.32;;;7.47;;
65471;SDS011;52068;50.710;14.492;2022-12-17T15:38:27;10.65;;;7.18;;
65471;SDS011;52068;50.710;14.492;2022-12-17T15:40:52;10.02;;;7.35;;
65471;SDS011;52068;50.710;14.492;2022-12-17T15:43:18;11.95;;;7.68;;
65471;SDS011;52068;50.710;14.492;2022-12-17T15:45:44;10.57;;;7.43;;
65471;SDS011;52068;50.710;14.492;2022-12-17T15:48:12;13.10;;;7.75;;
65471;SDS011;52068;50.710;14.492;2022-12-17T15:50:43;13.40;;;7.80;;
65471;SDS011;52068;50.710;14.492;2022-12-17T15:53:08;13.32;;;7.85;;
65471;SDS011;52068;50.710;14.492;2022-12-17T15:55:34;10.52;;;7.57;;
65471;SDS011;52068;50.710;14.492;2022-12-17T15:58:01;13.20;;;7.25;;
65471;SDS011;52068;50.710;14.492;2022-12-17T16:00:27;10.80;;;7.63;;
65471;SDS011;52068;50.710;14.492;2022-12-17T16:02:52;12.20;;;7.57;;
65471;SDS011;52068;50.710;14.492;2022-12-17T16:05:18;10.85;;;7.40;;
65471;SDS011;52068;50.710;14.492;2022-12-17T16:07:44;9.35;;;6.72;;
65471;SDS011;52068;50.710;14.492;2022-12-17T16:10:10;11.77;;;7.32;;
65471;SDS011;52068;50.710;14.492;2022-12-17T16:12:36;12.75;;;7.57;;
65471;SDS011;52068;50.710;14.492;2022-12-17T16:15:03;11.45;;;7.05;;
65471;SDS011;52068;50.710;14.492;2022-12-17T16:17:29;14.57;;;8.73;;
65471;SDS011;52068;50.710;14.492;2022-12-17T16:19:54;11.50;;;7.57;;
65471;SDS011;52068;50.710;14.492;2022-12-17T16:22:19;12.45;;;6.78;;
65471;SDS011;52068;50.710;14.492;2022-12-17T16:24:45;11.10;;;7.10;;
65471;SDS011;52068;50.710;14.492;2022-12-17T16:27:10;15.38;;;8.40;;
65471;SDS011;52068;50.710;14.492;2022-12-17T16:29:36;10.88;;;6.85;;
65471;SDS011;52068;50.710;14.492;2022-12-17T16:32:02;10.25;;;6.75;;
65471;SDS011;52068;50.710;14.492;2022-12-17T16:34:27;9.82;;;6.95;;
65471;SDS011;52068;50.710;14.492;2022-12-17T16:36:53;10.70;;;7.18;;
65471;SDS011;52068;50.710;14.492;2022-12-17T16:39:18;10.18;;;6.50;;
65471;SDS011;52068;50.710;14.492;2022-12-17T16:41:44;11.32;;;6.90;;
65471;SDS011;52068;50.710;14.492;2022-12-17T16:44:10;11.00;;;7.15;;
65471;SDS011;52068;50.710;14.492;2022-12-17T16:46:36;10.23;;;6.70;;
65471;SDS011;52068;50.710;14.492;2022-12-17T16:49:05;9.15;;;6.45;;
65471;SDS011;52068;50.710;14.492;2022-12-17T16:51:35;9.63;;;6.50;;
65471;SDS011;52068;50.710;14.492;2022-12-17T16:54:05;12.00;;;7.25;;
65471;SDS011;52068;50.710;14.492;2022-12-17T16:56:31;8.70;;;6.32;;
65471;SDS011;52068;50.710;14.492;2022-12-17T16:58:57;9.07;;;6.68;;
65471;SDS011;52068;50.710;14.492;2022-12-17T17:01:23;10.57;;;6.60;;
65471;SDS011;52068;50.710;14.492;2022-12-17T17:03:50;10.25;;;7.18;;
65471;SDS011;52068;50.710;14.492;2022-12-17T17:06:16;8.85;;;6.65;;
65471;SDS011;52068;50.710;14.492;2022-12-17T17:08:42;11.40;;;7.43;;